Time;durP1;ratioP1;P1;durP2;ratioP2;P2;SDS_P1;SDS_P2;PMS_P1;PMS_P2;Temp;Humidity;BMP_temperature;BMP_pressure;BME280_temperature;BME280_humidity;BME280_pressure;Samples;Min_cycle;Max_cycle;Signal;HPM_P1;HPM_P2
2022/02/23 00:00:13;;;;;;;1.15;1.05;;;3.10;94.00;;;;;;5013450;28;20030;-79
2022/02/23 00:02:39;;;;;;;1.67;1.58;;;3.10;94.00;;;;;;5015483;28;20030;-81
2022/02/23 00:05:05;;;;;;;2.72;1.20;;;3.20;93.90;;;;;;5014534;28;20042;-78
2022/02/23 00:07:31;;;;;;;1.50;1.20;;;3.20;93.90;;;;;;5015106;28;20100;-81
2022/02/23 00:09:57;;;;;;;1.83;1.38;;;3.20;93.80;;;;;;5016133;28;20038;-81
2022/02/23 00:12:23;;;;;;;5.75;1.75;;;3.20;93.70;;;;;;5015754;28;20026;-80
2022/02/23 00:14:49;;;;;;;2.30;1.42;;;3.20;93.70;;;;;;4997985;28;20022;-80
2022/02/23 00:17:14;;;;;;;1.60;1.50;;;3.30;93.70;;;;;;4978359;28;20030;-80
2022/02/23 00:19:40;;;;;;;1.98;1.50;;;3.30;93.70;;;;;;4995930;28;20026;-79
2022/02/23 00:22:06;;;;;;;1.38;1.05;;;3.30;93.70;;;;;;4995821;28;20037;-80
2022/02/23 00:24:32;;;;;;;2.78;1.60;;;3.30;93.60;;;;;;4994340;28;20037;-80
2022/02/23 00:26:57;;;;;;;2.75;1.75;;;3.40;93.60;;;;;;4996249;28;20410;-79
2022/02/23 00:29:23;;;;;;;1.73;1.40;;;3.40;93.50;;;;;;4995924;28;20034;-79
2022/02/23 00:31:49;;;;;;;2.75;1.30;;;3.40;93.40;;;;;;5005135;28;20040;-79
2022/02/23 00:34:15;;;;;;;2.35;1.52;;;3.40;93.30;;;;;;5015635;28;20022;-80
2022/02/23 00:36:41;;;;;;;2.67;1.88;;;3.40;93.30;;;;;;5015025;28;20196;-79
2022/02/23 00:39:07;;;;;;;1.55;1.27;;;3.40;93.20;;;;;;5015430;28;20030;-80
2022/02/23 00:41:33;;;;;;;2.47;1.92;;;3.40;93.30;;;;;;4997175;28;20418;-80
2022/02/23 00:43:58;;;;;;;5.07;3.35;;;3.40;93.30;;;;;;5014747;28;20026;-80
2022/02/23 00:46:24;;;;;;;1.50;1.30;;;3.40;93.30;;;;;;5015522;28;20037;-80
2022/02/23 00:48:50;;;;;;;1.80;1.35;;;3.40;93.20;;;;;;5017382;28;20025;-79
2022/02/23 00:51:16;;;;;;;2.17;1.58;;;3.40;93.20;;;;;;5015116;28;20022;-80
2022/02/23 00:53:41;;;;;;;1.35;1.15;;;3.40;93.30;;;;;;5010431;28;20033;-80
2022/02/23 00:56:08;;;;;;;1.40;1.08;;;3.40;93.30;;;;;;5022808;28;20041;-78
2022/02/23 00:58:34;;;;;;;2.03;1.50;;;3.40;93.30;;;;;;5019924;28;20038;-81
2022/02/23 01:01:00;;;;;;;1.63;0.98;;;3.40;93.20;;;;;;5014971;28;20444;-80
2022/02/23 01:03:25;;;;;;;1.95;1.30;;;3.40;93.10;;;;;;5014793;28;20021;-80
2022/02/23 01:05:51;;;;;;;1.45;1.23;;;3.40;93.10;;;;;;5014695;28;20025;-80
2022/02/23 01:08:17;;;;;;;1.67;1.23;;;3.40;93.10;;;;;;5014966;28;20088;-79
2022/02/23 01:10:43;;;;;;;1.05;0.95;;;3.30;93.30;;;;;;5014758;28;20032;-79
2022/02/23 01:13:09;;;;;;;1.90;1.52;;;3.30;93.20;;;;;;5014405;28;20026;-82
2022/02/23 01:15:35;;;;;;;1.48;1.00;;;3.30;93.20;;;;;;4996651;28;20493;-80
2022/02/23 01:18:01;;;;;;;2.47;2.10;;;3.30;93.20;;;;;;5012569;28;20402;-80
2022/02/23 01:20:27;;;;;;;1.73;1.45;;;3.30;93.20;;;;;;5014354;28;20029;-80
2022/02/23 01:22:56;;;;;;;1.25;0.90;;;3.30;93.30;;;;;;5014573;28;20040;-80
2022/02/23 01:25:24;;;;;;;2.50;1.65;;;3.30;93.20;;;;;;5014181;28;20022;-80
2022/02/23 01:27:50;;;;;;;;;;;3.30;93.20;;;;;;5014494;28;20026;-79
2022/02/23 01:30:17;;;;;;;1.58;1.30;;;3.30;93.20;;;;;;5014601;28;20008;-79
2022/02/23 01:32:43;;;;;;;2.17;1.25;;;3.30;93.20;;;;;;5014264;28;20100;-78
2022/02/23 01:35:09;;;;;;;1.65;1.30;;;3.30;93.30;;;;;;5014838;28;20056;-77
2022/02/23 01:37:35;;;;;;;1.25;1.15;;;3.30;93.40;;;;;;5014313;28;20045;-80
2022/02/23 01:40:01;;;;;;;1.77;1.33;;;3.20;93.40;;;;;;5014383;28;20108;-78
2022/02/23 01:42:27;;;;;;;1.63;1.23;;;3.20;93.50;;;;;;5014331;28;20033;-79
2022/02/23 01:44:52;;;;;;;1.38;1.17;;;3.30;93.50;;;;;;5013874;28;20034;-78
2022/02/23 01:47:18;;;;;;;1.30;1.00;;;3.20;93.50;;;;;;4996020;28;20113;-79
2022/02/23 01:49:44;;;;;;;3.35;1.65;;;3.20;93.60;;;;;;5013855;28;20029;-77
2022/02/23 01:52:10;;;;;;;1.85;1.50;;;3.20;93.60;;;;;;4996043;28;20029;-79
2022/02/23 01:54:36;;;;;;;1.33;1.15;;;3.20;93.60;;;;;;5005485;28;20026;-78
2022/02/23 01:57:01;;;;;;;2.25;1.60;;;3.20;93.60;;;;;;5013342;28;20106;-79
2022/02/23 01:59:27;;;;;;;2.38;1.65;;;3.20;93.70;;;;;;5013382;28;20103;-78
2022/02/23 02:01:53;;;;;;;1.60;1.40;;;3.20;93.70;;;;;;4995716;28;20022;-79
2022/02/23 02:04:21;;;;;;;2.00;1.40;;;3.20;93.60;;;;;;5013264;28;20018;-80
2022/02/23 02:06:49;;;;;;;2.55;1.23;;;3.20;94.00;;;;;;5013648;28;20080;-80
2022/02/23 02:09:15;;;;;;;;;;;3.20;93.70;;;;;;5014022;28;20435;-80
2022/02/23 02:11:41;;;;;;;1.77;1.13;;;3.20;93.70;;;;;;5020953;28;19937;-77
2022/02/23 02:14:07;;;;;;;2.40;1.45;;;3.20;93.70;;;;;;5027156;28;20048;-79
2022/02/23 02:16:33;;;;;;;3.63;1.50;;;3.10;93.80;;;;;;5018253;28;20451;-78
2022/02/23 02:19:01;;;;;;;1.60;1.40;;;3.10;93.80;;;;;;5015687;28;20060;-79
2022/02/23 02:21:52;;;;;;;1.30;1.17;;;3.10;93.80;;;;;;5014447;28;20068;-78
2022/02/23 02:24:18;;;;;;;1.75;1.35;;;3.20;93.90;;;;;;5016248;28;20042;-79
2022/02/23 02:26:44;;;;;;;1.70;1.58;;;3.20;93.80;;;;;;5012569;28;20034;-79
2022/02/23 02:29:10;;;;;;;1.95;1.25;;;3.20;93.80;;;;;;5012757;28;20023;-78
2022/02/23 02:31:35;;;;;;;3.20;1.42;;;3.20;93.80;;;;;;4997089;28;20036;-78
2022/02/23 02:34:01;;;;;;;1.60;1.45;;;3.20;93.80;;;;;;5008554;28;20095;-78
2022/02/23 02:36:27;;;;;;;3.33;1.50;;;3.20;93.80;;;;;;5012818;28;20045;-78
2022/02/23 02:38:53;;;;;;;2.08;1.25;;;3.20;93.60;;;;;;5012660;28;20037;-78
2022/02/23 02:41:18;;;;;;;1.23;1.10;;;3.20;93.60;;;;;;5013381;28;20471;-77
2022/02/23 02:43:44;;;;;;;1.73;1.27;;;3.20;93.60;;;;;;4995366;28;20625;-78
2022/02/23 02:46:10;;;;;;;1.60;1.50;;;3.20;93.60;;;;;;5012981;28;20050;-79
2022/02/23 02:48:36;;;;;;;1.55;1.17;;;3.20;93.70;;;;;;5023419;28;20160;-78
2022/02/23 02:51:02;;;;;;;1.88;1.30;;;3.20;93.80;;;;;;5016815;28;20068;-79
2022/02/23 02:53:27;;;;;;;1.70;1.30;;;3.20;93.80;;;;;;5013349;28;20044;-78
2022/02/23 02:55:53;;;;;;;1.67;1.17;;;3.20;93.80;;;;;;5000006;28;20027;-78
2022/02/23 02:58:19;;;;;;;1.42;1.33;;;3.20;94.00;;;;;;4995011;28;20041;-79
2022/02/23 03:00:45;;;;;;;2.20;1.30;;;3.10;94.10;;;;;;5012587;28;20044;-80
2022/02/23 03:03:10;;;;;;;1.50;1.20;;;3.00;94.30;;;;;;5012445;28;20032;-78
2022/02/23 03:05:36;;;;;;;1.42;1.20;;;3.00;94.40;;;;;;4994944;28;20113;-78
2022/02/23 03:08:02;;;;;;;2.15;1.60;;;3.00;94.60;;;;;;5012537;28;20399;-78
2022/02/23 03:10:28;;;;;;;3.13;1.60;;;2.90;94.80;;;;;;4994776;28;20483;-79
2022/02/23 03:12:54;;;;;;;1.95;1.45;;;3.00;94.90;;;;;;4994788;28;20061;-79
2022/02/23 03:15:19;;;;;;;2.95;1.20;;;3.00;94.90;;;;;;4994842;28;20462;-80
2022/02/23 03:17:45;;;;;;;1.67;1.42;;;3.00;94.90;;;;;;4996866;28;20371;-80
2022/02/23 03:20:12;;;;;;;1.60;1.23;;;3.00;94.90;;;;;;5016872;28;20083;-79
2022/02/23 03:22:37;;;;;;;2.38;1.70;;;3.00;95.00;;;;;;5013379;28;20528;-79
2022/02/23 03:25:04;;;;;;;1.30;1.10;;;2.90;95.00;;;;;;5012490;28;20054;-80
2022/02/23 03:27:30;;;;;;;4.32;1.38;;;2.90;95.20;;;;;;5012602;28;20443;-80
2022/02/23 03:29:57;;;;;;;3.33;1.90;;;2.90;95.20;;;;;;4994692;28;20113;-80
2022/02/23 03:32:23;;;;;;;2.33;1.80;;;2.90;95.60;;;;;;5012234;28;20092;-79
2022/02/23 03:34:48;;;;;;;2.20;1.55;;;2.90;95.40;;;;;;5012071;28;20026;-80
2022/02/23 03:37:14;;;;;;;1.88;1.20;;;2.90;95.50;;;;;;5012087;28;20056;-79
2022/02/23 03:39:40;;;;;;;1.50;1.10;;;2.90;95.60;;;;;;4997853;28;20045;-80
2022/02/23 03:42:06;;;;;;;3.42;1.63;;;2.80;95.60;;;;;;5013704;28;20041;-81
2022/02/23 03:44:32;;;;;;;2.13;1.90;;;2.80;95.70;;;;;;5014669;28;20034;-81
2022/02/23 03:46:58;;;;;;;1.90;1.50;;;2.80;95.80;;;;;;5016208;28;20022;-79
2022/02/23 03:49:23;;;;;;;1.40;1.20;;;2.80;95.90;;;;;;5015767;28;20065;-81
2022/02/23 03:51:49;;;;;;;2.03;1.48;;;2.70;95.80;;;;;;5015771;28;20029;-79
2022/02/23 03:54:15;;;;;;;2.15;1.60;;;2.70;96.10;;;;;;5015112;28;20109;-79
2022/02/23 03:56:43;;;;;;;1.70;1.40;;;2.70;96.20;;;;;;4997912;28;20037;-79
2022/02/23 03:59:13;;;;;;;2.40;1.95;;;2.70;96.30;;;;;;5015819;28;20053;-79
2022/02/23 04:01:42;;;;;;;1.50;1.40;;;2.60;96.30;;;;;;5015386;28;20491;-79
2022/02/23 04:04:09;;;;;;;1.63;1.33;;;2.60;96.40;;;;;;5015580;28;20030;-79
2022/02/23 04:06:35;;;;;;;2.63;1.75;;;2.60;96.30;;;;;;5014108;28;20393;-79
2022/02/23 04:09:04;;;;;;;2.72;2.13;;;2.60;96.40;;;;;;5015620;28;20080;-79
2022/02/23 04:11:30;;;;;;;2.25;1.73;;;2.50;96.50;;;;;;5015288;28;20050;-78
2022/02/23 04:13:55;;;;;;;4.55;1.75;;;2.60;96.90;;;;;;5015487;28;20422;-79
2022/02/23 04:16:21;;;;;;;1.85;1.63;;;2.60;96.60;;;;;;5015696;28;20083;-79
2022/02/23 04:18:47;;;;;;;2.63;1.85;;;2.60;96.60;;;;;;5015668;28;20440;-80
2022/02/23 04:21:13;;;;;;;2.65;2.08;;;2.50;96.60;;;;;;4999593;28;20030;-78
2022/02/23 04:23:39;;;;;;;3.40;2.47;;;2.50;96.60;;;;;;5016978;28;20109;-79
2022/02/23 04:26:05;;;;;;;1.83;1.73;;;2.50;96.70;;;;;;4997760;28;20030;-80
2022/02/23 04:28:31;;;;;;;2.17;1.75;;;2.50;96.80;;;;;;4997770;28;20029;-79
2022/02/23 04:31:00;;;;;;;2.45;1.75;;;2.50;96.90;;;;;;4997731;28;20084;-78
2022/02/23 04:33:26;;;;;;;1.75;1.25;;;2.50;97.00;;;;;;5014929;28;20033;-79
2022/02/23 04:35:52;;;;;;;3.30;2.08;;;2.50;97.00;;;;;;5015681;28;20522;-80
2022/02/23 04:38:18;;;;;;;4.93;2.20;;;2.50;97.10;;;;;;5016267;28;20089;-77
2022/02/23 04:40:45;;;;;;;2.63;2.05;;;2.50;97.10;;;;;;5029915;28;20443;-80
2022/02/23 04:43:11;;;;;;;3.60;1.87;;;2.40;97.20;;;;;;5017792;28;20025;-79
2022/02/23 04:45:37;;;;;;;3.40;2.10;;;2.40;97.30;;;;;;5008327;28;20037;-81
2022/02/23 04:48:03;;;;;;;2.67;2.05;;;2.30;97.40;;;;;;4995337;28;20022;-80
2022/02/23 04:50:29;;;;;;;4.80;2.65;;;2.20;97.70;;;;;;5015787;28;20414;-79
2022/02/23 04:52:55;;;;;;;3.55;2.20;;;2.20;98.00;;;;;;5014822;28;20030;-80
2022/02/23 04:55:21;;;;;;;6.68;2.50;;;2.10;98.20;;;;;;5019806;28;20026;-80
2022/02/23 04:57:47;;;;;;;3.38;2.13;;;2.10;98.30;;;;;;5025691;28;20034;-81
2022/02/23 05:00:13;;;;;;;3.33;2.90;;;2.00;98.70;;;;;;5023571;28;20026;-79
2022/02/23 05:02:39;;;;;;;3.88;3.08;;;2.00;99.00;;;;;;5002492;28;20044;-79
2022/02/23 05:05:06;;;;;;;3.88;2.80;;;2.00;99.10;;;;;;4998048;28;20030;-78
2022/02/23 05:07:32;;;;;;;3.73;2.77;;;2.00;99.10;;;;;;5014912;28;20418;-78
2022/02/23 05:09:57;;;;;;;4.78;2.95;;;1.90;99.30;;;;;;5015084;28;20030;-79
2022/02/23 05:12:26;;;;;;;5.70;3.00;;;1.80;99.60;;;;;;5014618;28;20419;-80
2022/02/23 05:14:52;;;;;;;3.95;2.60;;;1.80;99.90;;;;;;5014814;28;20064;-79
2022/02/23 05:17:18;;;;;;;3.33;2.28;;;1.80;99.90;;;;;;5014718;28;20535;-78
2022/02/23 05:19:45;;;;;;;5.63;3.28;;;1.80;99.90;;;;;;5015011;28;20113;-80
2022/02/23 05:22:11;;;;;;;4.68;2.83;;;1.80;99.90;;;;;;4997059;28;20018;-80
2022/02/23 05:24:37;;;;;;;4.57;2.95;;;1.90;99.90;;;;;;5014678;28;20034;-80
2022/02/23 05:27:05;;;;;;;5.30;3.03;;;1.90;99.90;;;;;;5014319;28;20025;-81
2022/02/23 05:29:31;;;;;;;4.05;2.88;;;1.90;99.90;;;;;;5014274;28;20026;-79
2022/02/23 05:31:57;;;;;;;4.50;2.95;;;1.90;99.90;;;;;;5014219;28;20022;-78
2022/02/23 05:34:23;;;;;;;3.42;2.45;;;1.90;99.90;;;;;;5014013;28;20037;-80
2022/02/23 05:36:50;;;;;;;3.35;2.63;;;1.90;99.90;;;;;;5013925;28;20129;-78
2022/02/23 05:39:16;;;;;;;3.42;2.50;;;1.90;99.90;;;;;;5014406;28;20077;-78
2022/02/23 05:41:42;;;;;;;5.95;2.85;;;1.90;99.90;;;;;;5014660;28;20033;-78
2022/02/23 05:44:08;;;;;;;3.45;2.33;;;2.00;99.90;;;;;;5014462;28;20403;-79
2022/02/23 05:46:34;;;;;;;3.03;2.58;;;2.00;99.90;;;;;;4981655;28;20082;-80
2022/02/23 05:49:00;;;;;;;3.53;2.50;;;2.00;99.90;;;;;;4994976;28;20026;-79
2022/02/23 05:51:29;;;;;;;2.67;2.47;;;2.00;99.90;;;;;;5006327;28;20045;-78
2022/02/23 05:53:55;;;;;;;5.18;2.88;;;2.10;99.90;;;;;;5013412;28;20034;-80
2022/02/23 05:56:21;;;;;;;6.53;2.63;;;2.10;99.90;;;;;;5015965;28;20025;-80
2022/02/23 05:58:47;;;;;;;3.50;2.60;;;2.20;99.90;;;;;;5015458;28;20029;-80
2022/02/23 06:01:14;;;;;;;3.90;2.55;;;2.20;99.90;;;;;;5015417;28;20022;-79
2022/02/23 06:03:39;;;;;;;7.90;2.40;;;2.20;99.90;;;;;;5013992;28;20026;-80
2022/02/23 06:06:06;;;;;;;2.42;1.65;;;2.10;99.90;;;;;;5013092;28;20044;-80
2022/02/23 06:08:31;;;;;;;4.35;2.58;;;2.10;99.90;;;;;;5013648;28;20032;-79
2022/02/23 06:10:57;;;;;;;2.83;2.33;;;2.10;99.90;;;;;;5015712;28;20390;-79
2022/02/23 06:13:23;;;;;;;3.08;2.28;;;2.10;99.90;;;;;;5014508;28;20088;-80
2022/02/23 06:15:49;;;;;;;3.65;2.20;;;2.10;99.90;;;;;;5014258;28;20026;-79
2022/02/23 06:18:15;;;;;;;3.70;2.67;;;2.10;99.90;;;;;;5013263;28;20033;-79
2022/02/23 06:20:41;;;;;;;3.38;2.20;;;2.10;99.90;;;;;;5006024;28;20030;-80
2022/02/23 06:23:07;;;;;;;3.45;2.05;;;2.10;99.90;;;;;;4977468;28;20034;-82
2022/02/23 06:25:33;;;;;;;6.53;2.72;;;2.10;99.90;;;;;;4977220;28;20053;-79
2022/02/23 06:28:02;;;;;;;3.78;2.17;;;2.20;99.90;;;;;;4995003;28;20015;-79
2022/02/23 06:30:28;;;;;;;4.22;2.10;;;2.30;99.90;;;;;;4998754;28;20555;-78
2022/02/23 06:32:54;;;;;;;3.13;2.55;;;2.30;99.90;;;;;;5001408;28;20018;-79
2022/02/23 06:35:20;;;;;;;3.30;2.47;;;2.40;99.90;;;;;;5016250;28;20050;-80
2022/02/23 06:37:45;;;;;;;3.97;2.42;;;2.30;99.90;;;;;;5013377;28;20034;-81
2022/02/23 06:40:13;;;;;;;3.35;2.40;;;2.40;99.90;;;;;;4995704;28;20033;-79
2022/02/23 06:42:39;;;;;;;2.17;1.92;;;2.50;99.90;;;;;;5012815;28;20028;-80
2022/02/23 06:45:06;;;;;;;3.35;2.55;;;2.50;99.90;;;;;;5000775;28;20152;-77
2022/02/23 06:47:33;;;;;;;6.72;2.38;;;2.50;99.90;;;;;;4975955;28;20053;-80
2022/02/23 06:49:58;;;;;;;3.70;2.47;;;2.40;99.90;;;;;;4993695;28;20475;-79
2022/02/23 06:52:31;;;;;;;4.30;2.47;;;2.50;99.90;;;;;;4993624;28;20038;-79
2022/02/23 06:54:58;;;;;;;3.95;1.98;;;2.50;99.90;;;;;;4993760;28;20029;-79
2022/02/23 06:57:24;;;;;;;1.73;1.38;;;2.60;99.90;;;;;;4995738;28;20110;-80
2022/02/23 06:59:50;;;;;;;2.85;1.95;;;2.70;99.90;;;;;;4995245;28;20124;-81
2022/02/23 07:02:16;;;;;;;2.53;2.00;;;2.80;99.90;;;;;;5012696;28;20069;-80
2022/02/23 07:04:42;;;;;;;3.70;2.63;;;2.70;99.80;;;;;;5012758;28;20487;-80
2022/02/23 07:07:09;;;;;;;2.40;1.90;;;2.70;99.80;;;;;;5013098;28;20386;-79
2022/02/23 07:09:35;;;;;;;3.42;2.53;;;2.90;99.90;;;;;;5012847;28;20025;-81
2022/02/23 07:12:08;;;;;;;2.83;2.40;;;3.00;99.70;;;;;;5012871;28;20034;-80
2022/02/23 07:14:34;;;;;;;2.17;1.83;;;3.00;99.40;;;;;;5016204;28;20062;-82
2022/02/23 07:17:00;;;;;;;3.00;2.67;;;2.90;99.10;;;;;;4998329;28;20542;-81
2022/02/23 07:19:26;;;;;;;4.13;2.30;;;2.90;99.30;;;;;;4997187;28;20034;-81
2022/02/23 07:21:52;;;;;;;6.28;2.53;;;3.00;99.30;;;;;;4995047;28;20099;-78
2022/02/23 07:24:19;;;;;;;4.53;2.60;;;3.00;98.70;;;;;;4996378;28;20032;-80
2022/02/23 07:26:45;;;;;;;3.00;2.25;;;3.00;98.70;;;;;;4992713;28;20029;-79
2022/02/23 07:29:11;;;;;;;3.28;1.88;;;3.00;98.50;;;;;;4993808;28;20042;-78
2022/02/23 07:31:37;;;;;;;6.65;4.78;;;3.00;98.30;;;;;;5010017;28;20120;-77
2022/02/23 07:34:05;;;;;;;4.00;2.53;;;3.00;98.50;;;;;;5012348;28;20022;-79
2022/02/23 07:36:30;;;;;;;2.90;2.00;;;3.10;98.40;;;;;;4993721;28;20511;-80
2022/02/23 07:38:56;;;;;;;4.88;2.88;;;3.00;97.70;;;;;;5011802;28;20049;-80
2022/02/23 07:41:23;;;;;;;4.20;2.20;;;2.90;98.00;;;;;;5010449;28;20447;-78
2022/02/23 07:43:53;;;;;;;3.80;2.47;;;3.00;98.00;;;;;;5005263;28;20057;-81
2022/02/23 07:46:20;;;;;;;3.00;1.90;;;3.00;98.00;;;;;;5008345;28;20105;-79
2022/02/23 07:48:47;;;;;;;6.57;2.00;;;3.00;97.80;;;;;;5015540;28;20018;-79
2022/02/23 07:51:17;;;;;;;2.03;1.38;;;3.00;97.80;;;;;;5011409;28;20022;-81
2022/02/23 07:53:44;;;;;;;3.22;1.55;;;3.10;97.50;;;;;;5011228;28;20037;-81
2022/02/23 07:56:10;;;;;;;3.30;2.08;;;3.10;97.40;;;;;;5009054;28;20032;-80
2022/02/23 07:58:36;;;;;;;4.45;2.13;;;3.20;97.30;;;;;;5011531;28;20038;-78
2022/02/23 08:01:02;;;;;;;2.22;1.50;;;3.10;97.30;;;;;;5012431;28;20029;-78
2022/02/23 08:03:28;;;;;;;3.00;1.20;;;3.40;97.40;;;;;;4992293;28;20073;-83
2022/02/23 08:05:55;;;;;;;2.67;1.98;;;3.50;97.00;;;;;;5009181;28;20387;-80
2022/02/23 08:08:22;;;;;;;3.90;1.17;;;3.50;96.50;;;;;;5010737;28;20024;-79
2022/02/23 08:10:48;;;;;;;5.40;1.40;;;3.60;96.00;;;;;;5012475;28;20060;-80
2022/02/23 08:13:15;;;;;;;2.22;1.35;;;3.50;96.00;;;;;;5012943;28;20022;-82
2022/02/23 08:21:14;;;;;;;2.70;1.65;;;3.90;95.90;;;;;;5013818;28;20028;-80
2022/02/23 08:23:43;;;;;;;2.10;1.63;;;4.00;95.40;;;;;;5016409;28;20046;-84
2022/02/23 08:26:12;;;;;;;3.00;1.83;;;4.10;95.00;;;;;;5020467;28;20022;-84
2022/02/23 08:28:38;;;;;;;1.63;1.50;;;4.00;94.60;;;;;;5013656;28;20152;-78
2022/02/23 08:31:05;;;;;;;3.55;1.48;;;4.00;94.20;;;;;;5017310;28;20494;-81
2022/02/23 08:33:31;;;;;;;1.65;1.00;;;3.90;94.30;;;;;;5016528;28;20026;-78
2022/02/23 08:35:57;;;;;;;3.88;1.40;;;3.90;94.20;;;;;;5016184;28;20053;-79
2022/02/23 08:38:23;;;;;;;2.10;1.25;;;3.70;94.20;;;;;;5013875;28;20375;-78
2022/02/23 08:40:48;;;;;;;1.13;1.00;;;3.80;94.10;;;;;;5000099;28;20034;-80
2022/02/23 08:43:15;;;;;;;4.30;1.77;;;3.80;94.10;;;;;;5015582;28;20022;-81
2022/02/23 08:45:41;;;;;;;2.03;1.42;;;3.70;93.80;;;;;;4997579;28;20049;-77
2022/02/23 08:48:08;;;;;;;1.95;1.05;;;3.70;93.90;;;;;;5014930;28;20071;-79
2022/02/23 08:50:36;;;;;;;1.92;1.50;;;3.70;94.10;;;;;;5014753;28;20446;-78
2022/02/23 08:53:01;;;;;;;;;;;3.60;94.00;;;;;;5015026;28;20034;-81
2022/02/23 08:55:27;;;;;;;1.23;1.00;;;3.70;94.10;;;;;;5004451;28;19979;-78
2022/02/23 08:57:53;;;;;;;3.08;1.73;;;3.60;94.00;;;;;;4993506;28;20029;-78
2022/02/23 09:00:19;;;;;;;1.50;1.40;;;3.60;94.20;;;;;;5014457;28;20049;-80
2022/02/23 09:02:45;;;;;;;1.60;1.45;;;3.70;94.20;;;;;;5014621;28;20029;-80
2022/02/23 09:05:11;;;;;;;1.95;1.30;;;3.70;94.20;;;;;;5014493;28;20037;-79
2022/02/23 09:07:37;;;;;;;2.25;1.38;;;3.80;94.20;;;;;;5012761;28;20038;-81
2022/02/23 09:10:03;;;;;;;2.75;1.23;;;3.90;93.90;;;;;;4996249;28;20030;-77
2022/02/23 09:12:29;;;;;;;1.98;1.67;;;4.00;93.80;;;;;;5011698;28;20017;-80
2022/02/23 09:14:55;;;;;;;2.33;1.38;;;4.00;93.40;;;;;;5014433;28;20076;-76
2022/02/23 09:17:21;;;;;;;1.90;1.13;;;4.00;93.40;;;;;;5014514;28;20022;-80
2022/02/23 09:19:49;;;;;;;1.48;0.82;;;4.00;93.20;;;;;;5016781;28;20041;-79
2022/02/23 09:22:15;;;;;;;1.55;0.82;;;4.00;93.30;;;;;;5018609;28;20018;-86
2022/02/23 09:24:41;;;;;;;1.63;1.00;;;4.10;93.00;;;;;;5018025;28;20056;-84
2022/02/23 09:27:07;;;;;;;1.98;1.60;;;4.00;93.10;;;;;;5014128;28;20060;-81
2022/02/23 09:29:36;;;;;;;2.50;1.70;;;4.00;93.30;;;;;;5014853;28;20030;-84
2022/02/23 09:32:03;;;;;;;3.15;2.03;;;3.90;93.60;;;;;;5010202;28;20390;-82
2022/02/23 09:34:29;;;;;;;2.85;2.20;;;3.70;94.00;;;;;;5015558;28;20021;-81
2022/02/23 09:36:55;;;;;;;2.47;1.55;;;3.50;94.60;;;;;;5011352;28;20033;-81
2022/02/23 09:39:21;;;;;;;4.30;2.33;;;3.60;95.10;;;;;;5015582;28;20034;-80
2022/02/23 09:41:47;;;;;;;3.72;2.38;;;3.60;95.40;;;;;;4996121;28;20018;-82
2022/02/23 09:44:19;;;;;;;3.65;2.40;;;3.70;95.50;;;;;;4995307;28;20391;-82
2022/02/23 09:46:45;;;;;;;5.35;3.50;;;3.70;95.60;;;;;;4995101;28;20030;-79
2022/02/23 09:49:12;;;;;;;6.83;4.07;;;3.80;95.50;;;;;;4996279;28;20029;-81
2022/02/23 09:51:39;;;;;;;3.92;2.00;;;3.70;95.30;;;;;;4997285;28;20255;-82
2022/02/23 09:54:06;;;;;;;2.70;1.93;;;3.60;95.30;;;;;;4996077;28;20037;-80
2022/02/23 09:56:32;;;;;;;3.47;2.20;;;3.50;95.30;;;;;;5001966;28;20783;-82
2022/02/23 09:58:59;;;;;;;2.50;1.73;;;3.50;95.40;;;;;;5011267;28;20049;-80
2022/02/23 10:01:27;;;;;;;7.72;3.90;;;3.50;95.40;;;;;;4997499;28;20022;-80
2022/02/23 10:03:54;;;;;;;3.90;2.75;;;3.60;95.50;;;;;;4998551;28;20034;-84
2022/02/23 10:06:30;;;;;;;4.38;2.53;;;3.40;95.40;;;;;;4996163;28;20027;-80
2022/02/23 10:09:08;;;;;;;2.80;1.83;;;3.30;95.70;;;;;;5008555;28;20033;-80
2022/02/23 10:11:36;;;;;;;1.40;1.17;;;3.10;96.10;;;;;;5006235;28;20033;-81
2022/02/23 10:14:04;;;;;;;2.80;1.50;;;3.00;96.60;;;;;;5003700;28;20037;-80
2022/02/23 10:16:36;;;;;;;3.10;1.55;;;3.00;97.00;;;;;;4998398;28;20014;-80
2022/02/23 10:19:18;;;;;;;2.20;1.33;;;3.10;96.90;;;;;;4997845;28;20084;-81
2022/02/23 10:21:50;;;;;;;4.75;2.10;;;3.10;96.60;;;;;;4995695;28;20018;-81
2022/02/23 10:24:29;;;;;;;2.35;1.70;;;3.10;96.70;;;;;;4995223;28;20046;-80
2022/02/23 10:27:00;;;;;;;4.03;1.98;;;3.10;96.70;;;;;;4997241;28;20026;-80
2022/02/23 10:29:27;;;;;;;3.80;2.25;;;3.10;96.70;;;;;;4995464;28;20022;-80
2022/02/23 10:31:53;;;;;;;3.00;1.92;;;3.10;96.70;;;;;;4994792;28;20037;-81
2022/02/23 10:34:20;;;;;;;2.15;1.77;;;3.00;96.80;;;;;;4994658;28;20031;-80
2022/02/23 10:37:08;;;;;;;3.88;2.03;;;3.00;96.90;;;;;;4978745;28;20052;-81
2022/02/23 10:39:35;;;;;;;;;;;3.10;96.80;;;;;;5012362;28;20044;-82
2022/02/23 10:42:06;;;;;;;2.00;1.17;;;3.00;96.60;;;;;;5012528;28;19906;-81
2022/02/23 10:44:32;;;;;;;3.05;1.77;;;3.00;96.20;;;;;;5004208;28;20030;-80
2022/02/23 10:47:00;;;;;;;1.35;1.20;;;3.00;96.20;;;;;;5000768;28;20100;-80
2022/02/23 10:49:27;;;;;;;1.73;1.05;;;3.00;95.90;;;;;;5000856;28;20025;-79
2022/02/23 10:51:56;;;;;;;2.75;1.70;;;3.00;95.50;;;;;;4997479;28;20057;-82
2022/02/23 10:54:22;;;;;;;2.20;1.42;;;3.00;95.20;;;;;;4999540;28;20026;-79
2022/02/23 10:56:48;;;;;;;1.80;1.20;;;3.00;95.20;;;;;;4996518;28;20019;-82
2022/02/23 10:59:18;;;;;;;2.45;1.20;;;3.00;95.00;;;;;;5017808;28;20029;-83
2022/02/23 11:01:48;;;;;;;4.07;1.23;;;3.10;95.00;;;;;;5001679;28;20030;-83
2022/02/23 11:04:15;;;;;;;2.92;1.85;;;3.10;94.80;;;;;;5000599;28;20360;-81
2022/02/23 11:06:42;;;;;;;5.50;2.50;;;3.10;94.80;;;;;;4999954;28;20495;-81
2022/02/23 11:09:09;;;;;;;2.30;1.65;;;3.20;94.60;;;;;;4996417;28;20014;-91
2022/02/23 11:11:36;;;;;;;2.65;1.30;;;3.20;94.60;;;;;;5000830;28;20419;-86
2022/02/23 11:14:06;;;;;;;6.95;4.05;;;3.20;94.90;;;;;;4986473;28;20018;-83
2022/02/23 11:16:34;;;;;;;4.05;2.13;;;3.30;95.00;;;;;;5007624;28;20080;-86
2022/02/23 11:19:03;;;;;;;3.53;1.83;;;3.40;94.90;;;;;;5021389;28;20041;-82
2022/02/23 11:21:35;;;;;;;4.03;2.05;;;3.30;94.80;;;;;;5012974;28;20033;-81
2022/02/23 11:24:08;;;;;;;4.53;1.90;;;3.30;94.70;;;;;;5015240;28;20029;-79
2022/02/23 11:26:37;;;;;;;1.73;1.42;;;3.30;94.90;;;;;;5018769;28;20110;-80
2022/02/23 11:29:23;;;;;;;4.18;1.38;;;3.30;94.90;;;;;;5023936;28;20479;-81
2022/02/23 11:31:52;;;;;;;2.67;1.20;;;3.30;94.70;;;;;;5015345;28;20430;-79
2022/02/23 11:34:21;;;;;;;1.30;1.05;;;3.20;94.60;;;;;;4996205;28;20026;-83
2022/02/23 11:36:49;;;;;;;1.70;1.35;;;3.20;94.80;;;;;;4997340;28;20134;-82
2022/02/23 11:39:18;;;;;;;2.47;1.45;;;3.10;94.80;;;;;;5015682;28;20112;-83
2022/02/23 11:41:47;;;;;;;2.83;1.70;;;3.10;95.30;;;;;;5003930;28;20023;-82
2022/02/23 11:44:17;;;;;;;3.67;2.63;;;2.90;95.20;;;;;;4996102;28;20208;-84
2022/02/23 11:47:09;;;;;;;2.92;1.60;;;2.90;95.50;;;;;;4974305;28;20042;-83
2022/02/23 11:49:39;;;;;;;1.40;1.05;;;2.90;95.40;;;;;;4996352;28;20515;-85
2022/02/23 11:52:16;;;;;;;4.03;2.03;;;2.90;95.20;;;;;;4996660;28;20023;-83
2022/02/23 11:55:10;;;;;;;2.47;1.40;;;2.90;95.00;;;;;;4976907;28;20499;-85
2022/02/23 11:57:52;;;;;;;3.40;1.45;;;2.90;94.80;;;;;;4999233;28;20021;-83
2022/02/23 12:00:17;;;;;;;5.20;2.28;;;3.00;94.80;;;;;;5015096;28;20065;-84
2022/02/23 12:02:57;;;;;;;5.82;1.70;;;3.00;94.60;;;;;;5015646;28;20056;-82
2022/02/23 12:05:44;;;;;;;4.63;1.92;;;3.00;94.60;;;;;;5001454;28;20018;-82
2022/02/23 12:08:31;;;;;;;3.53;2.40;;;3.10;94.40;;;;;;5020671;28;20018;-81
2022/02/23 12:11:15;;;;;;;;;;;3.00;94.30;;;;;;5028396;28;20022;-83
2022/02/23 12:13:44;;;;;;;2.97;1.48;;;3.00;94.30;;;;;;5019892;28;19912;-83
2022/02/23 12:16:35;;;;;;;1.13;1.00;;;3.00;94.30;;;;;;5024361;28;20030;-86
2022/02/23 12:19:04;;;;;;;10.57;1.77;;;3.10;94.20;;;;;;5028062;28;20037;-80
2022/02/23 12:21:39;;;;;;;3.28;1.52;;;3.20;93.90;;;;;;5001768;28;20032;-81
2022/02/23 12:24:05;;;;;;;2.50;1.63;;;3.30;93.30;;;;;;5018469;28;20026;-84
2022/02/23 12:26:38;;;;;;;4.25;2.67;;;3.40;92.80;;;;;;4999784;28;20443;-81
2022/02/23 12:29:07;;;;;;;4.28;1.50;;;3.30;92.30;;;;;;5017790;28;20030;-85
2022/02/23 12:31:33;;;;;;;2.63;1.40;;;3.30;92.00;;;;;;5020525;28;20032;-83
2022/02/23 12:34:27;;;;;;;2.33;1.40;;;3.30;91.50;;;;;;5000685;28;20049;-84
2022/02/23 12:36:55;;;;;;;2.15;1.38;;;3.20;91.10;;;;;;5013175;28;20057;-83
2022/02/23 12:39:26;;;;;;;2.80;1.83;;;3.10;90.80;;;;;;4996548;28;20030;-82
2022/02/23 12:42:02;;;;;;;1.65;1.10;;;3.00;91.00;;;;;;5017431;28;20030;-82
2022/02/23 12:44:32;;;;;;;2.90;1.38;;;3.00;90.70;;;;;;4999392;28;20040;-83
2022/02/23 12:47:00;;;;;;;2.15;1.88;;;3.00;90.80;;;;;;5018753;28;20022;-83
2022/02/23 12:49:26;;;;;;;4.47;1.73;;;3.00;90.90;;;;;;5002148;28;20049;-82
2022/02/23 12:51:54;;;;;;;1.52;1.13;;;3.00;90.80;;;;;;5018361;28;20024;-83
2022/02/23 12:54:23;;;;;;;4.05;2.72;;;3.00;90.60;;;;;;5019637;28;20026;-81
2022/02/23 12:56:57;;;;;;;5.80;2.08;;;2.90;90.60;;;;;;5030367;28;20406;-83
2022/02/23 12:59:25;;;;;;;1.88;1.23;;;2.90;90.50;;;;;;5031645;28;20049;-82
2022/02/23 13:01:57;;;;;;;1.20;1.10;;;3.00;90.10;;;;;;5019598;28;20018;-82
2022/02/23 13:04:35;;;;;;;1.20;0.90;;;3.00;89.60;;;;;;5016418;28;20389;-81